Time;durP1;ratioP1;P1;durP2;ratioP2;P2;SDS_P1;SDS_P2;PMS_P1;PMS_P2;Temp;Humidity;BMP_temperature;BMP_pressure;BME280_temperature;BME280_humidity;BME280_pressure;Samples;Min_cycle;Max_cycle;Signal;HPM_P1;HPM_P2
2022/01/12 09:57:30;;;;;;;5.28;3.90;;;;;;;;;;5013469;28;20413;-72
2022/01/12 09:59:56;;;;;;;4.93;4.43;;;;;;;;;;4971177;28;20331;-74
2022/01/12 10:02:21;;;;;;;5.03;3.78;;;;;;;;;;4983065;28;20518;-74
2022/01/12 10:04:48;;;;;;;5.00;3.95;;;;;;;;;;4998518;28;20047;-73
2022/01/12 10:07:14;;;;;;;5.35;3.88;;;;;;;;;;5000764;28;20034;-73
2022/01/12 10:09:46;;;;;;;6.55;4.10;;;;;;;;;;4997321;28;20073;-73
2022/01/12 10:12:14;;;;;;;5.28;3.72;;;;;;;;;;4978237;28;20119;-73
2022/01/12 10:14:40;;;;;;;4.07;3.50;;;;;;;;;;4999019;28;20038;-73
2022/01/12 10:17:06;;;;;;;5.53;4.15;;;;;;;;;;4988540;28;20097;-72
2022/01/12 10:19:33;;;;;;;4.38;3.97;;;;;;;;;;4978208;28;20455;-72
2022/01/12 10:22:03;;;;;;;4.28;3.83;;;;;;;;;;4970426;28;20514;-72
2022/01/12 10:24:29;;;;;;;4.20;3.80;;;;;;;;;;4956491;28;20472;-73
2022/01/12 10:26:55;;;;;;;5.78;4.38;;;;;;;;;;4966927;28;20492;-72
2022/01/12 10:29:26;;;;;;;4.68;3.72;;;;;;;;;;4998061;28;20042;-72
2022/01/12 10:31:58;;;;;;;6.85;4.70;;;;;;;;;;4996862;28;20465;-72
2022/01/12 10:34:27;;;;;;;5.78;4.13;;;;;;;;;;4982698;28;20045;-72
2022/01/12 10:36:55;;;;;;;4.85;3.90;;;;;;;;;;4978251;28;20043;-73
2022/01/12 10:39:23;;;;;;;5.78;4.78;;;;;;;;;;4986196;28;20038;-73
2022/01/12 10:42:19;;;;;;;6.53;4.68;;;;;;;;;;4989835;28;20038;-73
2022/01/12 10:44:48;;;;;;;7.05;4.97;;;;;;;;;;4984934;28;20047;-73
2022/01/12 10:47:25;;;;;;;5.85;4.78;;;;;;;;;;4988231;28;20049;-73
2022/01/12 10:49:56;;;;;;;6.85;4.45;;;;;;;;;;4974067;28;20416;-73
2022/01/12 10:52:24;;;;;;;7.25;4.55;;;;;;;;;;4998605;28;20047;-73
2022/01/12 10:54:52;;;;;;;5.38;4.47;;;;;;;;;;4981648;28;20377;-73
2022/01/12 10:57:28;;;;;;;5.63;4.45;;;;;;;;;;4985494;28;20134;-73
2022/01/12 11:00:22;;;;;;;5.95;4.93;;;;;;;;;;4975839;28;20089;-73
2022/01/12 11:02:50;;;;;;;7.13;4.55;;;;;;;;;;5005053;28;20063;-73
2022/01/12 11:05:16;;;;;;;5.32;4.32;;;;;;;;;;4985169;28;20070;-73
2022/01/12 11:07:42;;;;;;;5.35;4.43;;;;;;;;;;4977208;28;20034;-73
2022/01/12 11:10:10;;;;;;;5.60;4.85;;;;;;;;;;4967521;28;20125;-73
2022/01/12 11:12:37;;;;;;;5.32;4.50;;;;;;;;;;4968980;28;20486;-73
2022/01/12 11:15:05;;;;;;;4.65;4.00;;;;;;;;;;4969157;28;20534;-73
2022/01/12 11:17:31;;;;;;;5.32;4.22;;;;;;;;;;4956422;28;20042;-73
2022/01/12 11:20:14;;;;;;;5.60;4.43;;;;;;;;;;4976095;28;20057;-73
2022/01/12 11:22:40;;;;;;;6.70;5.05;;;;;;;;;;4969960;28;20047;-73
2022/01/12 11:25:18;;;;;;;4.82;4.18;;;;;;;;;;4972054;28;20136;-73
2022/01/12 11:27:45;;;;;;;4.95;4.30;;;;;;;;;;4973312;28;20508;-73
2022/01/12 11:30:23;;;;;;;7.18;4.10;;;;;;;;;;4955537;28;20412;-73
2022/01/12 11:32:56;;;;;;;5.07;4.40;;;;;;;;;;4968247;28;20051;-73
2022/01/12 11:35:26;;;;;;;6.53;4.50;;;;;;;;;;4968294;28;20430;-73
2022/01/12 11:37:57;;;;;;;5.30;4.30;;;;;;;;;;4960720;28;20113;-73
2022/01/12 11:40:41;;;;;;;4.82;4.28;;;;;;;;;;4991556;28;20047;-73
2022/01/12 11:43:28;;;;;;;4.78;4.28;;;;;;;;;;4992061;28;20038;-74
2022/01/12 11:46:13;;;;;;;6.30;4.60;;;;;;;;;;4972353;28;20058;-74
2022/01/12 11:48:44;;;;;;;4.80;3.60;;;;;;;;;;4971207;28;20042;-74
2022/01/12 11:51:11;;;;;;;4.90;4.25;;;;;;;;;;4986890;28;20038;-73
2022/01/12 11:53:47;;;;;;;4.28;3.88;;;;;;;;;;4966061;28;20559;-73
2022/01/12 11:56:19;;;;;;;5.68;4.35;;;;;;;;;;4968205;28;20146;-73
2022/01/12 11:58:57;;;;;;;6.43;4.43;;;;;;;;;;4969282;28;20042;-73
2022/01/12 12:01:24;;;;;;;5.47;4.40;;;;;;;;;;4977475;28;20309;-73
2022/01/12 12:03:57;;;;;;;6.28;4.28;;;;;;;;;;4974968;28;20038;-73
2022/01/12 12:06:23;;;;;;;5.85;3.90;;;;;;;;;;4963741;28;20487;-73
2022/01/12 12:09:07;;;;;;;5.47;4.43;;;;;;;;;;4954644;28;20542;-73
2022/01/12 12:11:33;;;;;;;5.10;4.45;;;;;;;;;;4966333;28;20420;-73
2022/01/12 12:14:03;;;;;;;5.80;4.60;;;;;;;;;;4968206;28;20117;-73
2022/01/12 12:16:30;;;;;;;7.07;5.40;;;;;;;;;;4974623;28;20046;-73
2022/01/12 12:18:56;;;;;;;8.88;5.43;;;;;;;;;;4966071;28;20063;-73
2022/01/12 12:21:22;;;;;;;6.90;5.38;;;;;;;;;;4970778;28;20046;-73
2022/01/12 12:23:48;;;;;;;10.02;5.10;;;;;;;;;;4970140;28;20098;-73
2022/01/12 12:26:16;;;;;;;6.80;4.75;;;;;;;;;;4965683;28;20034;-73
2022/01/12 12:28:47;;;;;;;8.07;5.28;;;;;;;;;;4968112;28;20416;-73
2022/01/12 12:31:21;;;;;;;8.75;5.07;;;;;;;;;;4966499;28;20043;-73
2022/01/12 12:33:47;;;;;;;9.45;5.07;;;;;;;;;;4956590;28;20379;-73
2022/01/12 12:36:14;;;;;;;26.63;18.00;;;;;;;;;;4975259;28;20065;-74
2022/01/12 16:49:46;;;;;;;;;;;;;;;;;;;;;
2022/01/12 16:52:44;;;;;;;75.63;30.25;;;;;;;;;;4868682;29;20940;-82
2022/01/12 16:59:00;;;;;;;71.07;30.67;;;;;;;;;;4834190;29;20048;-82
2022/01/12 17:01:28;;;;;;;83.85;33.88;;;;;;;;;;4843224;29;20425;-82
2022/01/12 17:04:02;;;;;;;70.90;31.55;;;;;;;;;;4883884;29;20184;-83
2022/01/12 17:06:37;;;;;;;58.53;29.20;;;;;;;;;;4894829;28;20049;-83
2022/01/12 17:09:30;;;;;;;62.90;31.38;;;;;;;;;;4891249;28;20047;-82
2022/01/12 17:11:56;;;;;;;57.30;27.67;;;;;;;;;;4933719;28;20050;-82
2022/01/12 17:14:23;;;;;;;49.17;26.42;;;;;;;;;;4930666;28;20081;-81
2022/01/12 17:17:08;;;;;;;38.42;24.45;;;;;;;;;;4911603;28;20113;-82
2022/01/12 17:20:42;;;;;;;41.95;23.02;;;;;;;;;;4928004;28;20531;-82
2022/01/12 17:23:19;;;;;;;37.33;21.77;;;;;;;;;;4852134;29;20046;-82
2022/01/12 17:26:29;;;;;;;43.45;24.05;;;;;;;;;;4836348;29;20045;-83
2022/01/12 17:33:26;;;;;;;40.33;21.73;;;;;;;;;;4849015;28;20052;-82
2022/01/12 17:40:24;;;;;;;;;;;;;;;;;;;;;
2022/01/12 17:46:39;;;;;;;61.03;31.45;;;;;;;;;;4786825;29;20055;-80
2022/01/12 17:49:15;;;;;;;60.00;29.90;;;;;;;;;;4789848;29;20057;-81
2022/01/12 17:51:58;;;;;;;44.85;24.55;;;;;;;;;;4787012;29;20046;-79
2022/01/12 17:55:09;;;;;;;43.50;23.60;;;;;;;;;;4755713;29;20050;-80
2022/01/12 17:58:03;;;;;;;38.60;21.90;;;;;;;;;;4792567;29;20073;-82
2022/01/12 18:00:49;;;;;;;81.57;41.58;;;;;;;;;;4873209;29;20044;-82
2022/01/12 18:04:09;;;;;;;;;;;;;;;;;;;;;
2022/01/12 18:13:06;;;;;;;41.05;24.10;;;;;;;;;;4835265;29;20041;-83
2022/01/12 18:16:21;;;;;;;41.42;25.35;;;;;;;;;;4849301;29;20062;-82
2022/01/12 18:19:09;;;;;;;41.30;25.15;;;;;;;;;;4911636;28;20083;-81
2022/01/12 18:22:11;;;;;;;39.33;23.58;;;;;;;;;;4892676;28;20052;-80
2022/01/12 18:25:02;;;;;;;38.28;22.17;;;;;;;;;;4895509;28;20077;-80
2022/01/12 18:27:45;;;;;;;39.00;23.25;;;;;;;;;;4898048;29;20057;-82
2022/01/12 18:30:44;;;;;;;41.88;24.58;;;;;;;;;;4927412;28;20875;-80
2022/01/12 18:37:02;;;;;;;45.53;28.52;;;;;;;;;;4795704;29;20057;-80
2022/01/12 18:39:53;;;;;;;44.35;26.70;;;;;;;;;;4804502;29;20121;-80
2022/01/12 18:42:37;;;;;;;44.17;26.17;;;;;;;;;;4830386;29;20052;-79
2022/01/12 18:45:03;;;;;;;39.92;24.55;;;;;;;;;;4896266;28;20051;-80
2022/01/12 18:47:28;;;;;;;39.65;23.73;;;;;;;;;;4929760;29;20174;-81
2022/01/12 18:56:34;;;;;;;35.55;21.92;;;;;;;;;;4922765;28;20099;-82
2022/01/12 18:59:00;;;;;;;34.08;20.50;;;;;;;;;;4898871;29;20052;-80
2022/01/12 19:12:55;;;;;;;32.45;17.50;;;;;;;;;;4761053;30;20438;-80
2022/01/12 19:19:07;;;;;;;37.08;18.13;;;;;;;;;;4754373;29;20056;-79
2022/01/12 19:21:50;;;;;;;33.38;18.42;;;;;;;;;;4808484;29;20557;-81
2022/01/12 19:24:25;;;;;;;33.10;17.90;;;;;;;;;;4793700;29;20049;-80
2022/01/12 19:27:26;;;;;;;;;;;;;;;;;;;;;
2022/01/12 19:30:15;;;;;;;34.15;19.25;;;;;;;;;;4796709;29;19925;-79
2022/01/12 19:33:39;;;;;;;33.85;17.88;;;;;;;;;;4844672;29;20606;-80
2022/01/12 19:36:28;;;;;;;27.33;15.95;;;;;;;;;;4849012;29;20068;-80
2022/01/12 19:39:20;;;;;;;31.30;16.63;;;;;;;;;;4847070;29;20053;-80
2022/01/12 19:45:16;;;;;;;30.98;17.02;;;;;;;;;;4819033;29;20654;-80
2022/01/12 19:51:32;;;;;;;35.20;17.83;;;;;;;;;;4778494;29;20046;-80
2022/01/12 19:54:37;;;;;;;30.10;16.80;;;;;;;;;;4816131;29;20632;-80
2022/01/12 19:58:01;;;;;;;34.65;19.02;;;;;;;;;;4815714;29;20045;-80
2022/01/12 20:03:39;;;;;;;26.95;16.60;;;;;;;;;;4796301;29;20118;-81
2022/01/12 20:06:27;;;;;;;34.85;18.27;;;;;;;;;;4825418;29;20040;-81
2022/01/12 20:09:34;;;;;;;29.77;16.98;;;;;;;;;;4863541;29;20044;-80
2022/01/12 20:12:04;;;;;;;30.05;17.25;;;;;;;;;;4845780;29;20061;-81
2022/01/12 20:14:51;;;;;;;31.27;16.42;;;;;;;;;;4846477;29;20040;-81
2022/01/12 20:23:40;;;;;;;30.92;16.52;;;;;;;;;;4885666;29;20173;-81
2022/01/12 20:26:07;;;;;;;31.63;15.95;;;;;;;;;;4916415;28;20050;-80
2022/01/12 20:29:02;;;;;;;28.88;16.42;;;;;;;;;;4890833;29;20048;-81
2022/01/12 20:38:03;;;;;;;27.55;14.88;;;;;;;;;;4894891;29;20056;-81
2022/01/12 20:40:29;;;;;;;25.27;14.98;;;;;;;;;;4861244;29;20454;-81
2022/01/12 20:42:58;;;;;;;29.45;16.63;;;;;;;;;;4906291;28;20129;-81
2022/01/12 20:45:32;;;;;;;30.98;16.15;;;;;;;;;;4911111;29;20055;-81
2022/01/12 20:48:15;;;;;;;30.02;15.13;;;;;;;;;;4903541;28;20043;-81
2022/01/12 20:51:03;;;;;;;;;;;;;;;;;;;;;
2022/01/12 20:54:10;;;;;;;29.05;15.48;;;;;;;;;;4940779;28;20469;-81
